Time;durP1;ratioP1;P1;durP2;ratioP2;P2;SDS_P1;SDS_P2;PMS_P1;PMS_P2;Temp;Humidity;BMP_temperature;BMP_pressure;BME280_temperature;BME280_humidity;BME280_pressure;Samples;Min_cycle;Max_cycle;Signal;HPM_P1;HPM_P2
2021/11/20 00:02:00;;;;;;;13.60;8.85;;;;;;;;;;4907728;29;20032;-86
2021/11/20 00:04:26;;;;;;;13.52;8.68;;;;;;;;;;4915679;29;20028;-83
2021/11/20 00:06:53;;;;;;;12.15;8.00;;;;;;;;;;4898893;29;20035;-85
2021/11/20 00:09:22;;;;;;;13.00;8.30;;;;;;;;;;4897459;29;20608;-87
2021/11/20 00:11:49;;;;;;;11.57;8.13;;;;;;;;;;4902109;29;20505;-84
2021/11/20 00:14:16;;;;;;;10.85;7.40;;;;;;;;;;4907852;29;20076;-85
2021/11/20 00:16:43;;;;;;;10.23;7.70;;;;;;;;;;4896997;29;20451;-87
2021/11/20 00:19:10;;;;;;;12.05;7.03;;;;;;;;;;4897749;29;20063;-85
2021/11/20 00:21:39;;;;;;;10.55;7.50;;;;;;;;;;4915855;29;20052;-84
2021/11/20 00:24:16;;;;;;;12.50;7.60;;;;;;;;;;4900956;29;20029;-86
2021/11/20 00:26:43;;;;;;;10.48;6.38;;;;;;;;;;4897852;29;20461;-88
2021/11/20 00:31:44;;;;;;;11.38;6.65;;;;;;;;;;4916953;29;20044;-87
2021/11/20 00:34:11;;;;;;;9.63;5.88;;;;;;;;;;4921875;29;20025;-86
2021/11/20 00:36:37;;;;;;;10.35;6.80;;;;;;;;;;4930705;29;20078;-83
2021/11/20 00:39:09;;;;;;;11.05;6.60;;;;;;;;;;4920835;29;20055;-83
2021/11/20 00:41:35;;;;;;;9.00;6.68;;;;;;;;;;4913087;29;20082;-85
2021/11/20 00:44:02;;;;;;;10.48;7.00;;;;;;;;;;4906550;29;20099;-86
2021/11/20 00:46:30;;;;;;;9.27;6.60;;;;;;;;;;4901942;29;20141;-87
2021/11/20 00:48:56;;;;;;;9.63;5.90;;;;;;;;;;4906200;29;20016;-87
2021/11/20 00:51:24;;;;;;;11.07;6.65;;;;;;;;;;4904434;29;20044;-86
2021/11/20 00:53:50;;;;;;;9.57;5.97;;;;;;;;;;4929738;29;20032;-86
2021/11/20 00:56:18;;;;;;;9.30;6.10;;;;;;;;;;4922776;29;20024;-87
2021/11/20 00:58:44;;;;;;;9.75;5.28;;;;;;;;;;4919543;29;20029;-86
2021/11/20 01:01:13;;;;;;;8.18;5.32;;;;;;;;;;4907222;29;20337;-87
2021/11/20 01:03:39;;;;;;;9.68;5.32;;;;;;;;;;4933066;29;20028;-86
2021/11/20 01:06:05;;;;;;;8.95;5.47;;;;;;;;;;4919023;29;20052;-85
2021/11/20 01:08:34;;;;;;;7.32;5.35;;;;;;;;;;4905004;29;20541;-86
2021/11/20 01:11:09;;;;;;;7.80;4.65;;;;;;;;;;4909492;29;20495;-85
2021/11/20 01:13:36;;;;;;;8.43;4.38;;;;;;;;;;4928123;29;20028;-86
2021/11/20 01:16:04;;;;;;;7.32;4.78;;;;;;;;;;4913679;29;20112;-86
2021/11/20 01:18:31;;;;;;;8.57;6.03;;;;;;;;;;4905758;29;20517;-85
2021/11/20 01:20:57;;;;;;;8.80;4.95;;;;;;;;;;4906415;29;20036;-87
2021/11/20 01:23:25;;;;;;;9.15;5.63;;;;;;;;;;4928857;29;20028;-85
2021/11/20 01:25:51;;;;;;;9.10;6.10;;;;;;;;;;4905807;29;20024;-86
2021/11/20 01:28:18;;;;;;;9.77;6.40;;;;;;;;;;4922908;29;20032;-83
2021/11/20 01:30:44;;;;;;;9.52;6.60;;;;;;;;;;4940940;29;20051;-82
2021/11/20 01:33:10;;;;;;;11.23;6.82;;;;;;;;;;4916243;29;20076;-85
2021/11/20 01:35:36;;;;;;;10.25;6.75;;;;;;;;;;4940810;29;20025;-84
2021/11/20 01:38:03;;;;;;;12.00;8.52;;;;;;;;;;4904886;29;20394;-85
2021/11/20 01:40:30;;;;;;;11.18;7.50;;;;;;;;;;4916588;29;20425;-86
2021/11/20 01:42:57;;;;;;;11.75;7.70;;;;;;;;;;4919493;29;20133;-87
2021/11/20 01:45:25;;;;;;;11.68;7.85;;;;;;;;;;4940841;29;20034;-87
2021/11/20 01:47:54;;;;;;;10.18;7.18;;;;;;;;;;4940452;29;20032;-86
2021/11/20 01:50:41;;;;;;;10.15;6.90;;;;;;;;;;4924047;29;20471;-86
2021/11/20 01:53:13;;;;;;;11.02;7.13;;;;;;;;;;4938397;29;20016;-85
2021/11/20 01:55:43;;;;;;;10.05;6.32;;;;;;;;;;4938504;29;20497;-86
2021/11/20 01:58:26;;;;;;;9.57;5.72;;;;;;;;;;4916242;29;20076;-87
2021/11/20 02:00:55;;;;;;;8.32;5.05;;;;;;;;;;4922757;29;20024;-86
2021/11/20 02:03:24;;;;;;;9.10;5.57;;;;;;;;;;4925616;29;20056;-86
2021/11/20 02:06:02;;;;;;;8.52;5.55;;;;;;;;;;4914766;29;20099;-87
2021/11/20 02:08:34;;;;;;;8.80;5.75;;;;;;;;;;4924966;29;20031;-87
2021/11/20 02:11:09;;;;;;;9.07;5.18;;;;;;;;;;4924628;29;20028;-86
2021/11/20 02:13:36;;;;;;;9.05;5.30;;;;;;;;;;4909824;29;20505;-85
2021/11/20 02:16:10;;;;;;;8.93;5.47;;;;;;;;;;4923291;29;20028;-85
2021/11/20 02:18:40;;;;;;;8.80;5.50;;;;;;;;;;4921669;29;20032;-85
2021/11/20 02:21:11;;;;;;;10.52;5.93;;;;;;;;;;4905796;29;20027;-86
2021/11/20 02:23:37;;;;;;;9.23;6.00;;;;;;;;;;4927756;29;20060;-85
2021/11/20 02:26:03;;;;;;;8.68;6.03;;;;;;;;;;4921836;29;20028;-83
2021/11/20 02:28:30;;;;;;;9.20;6.07;;;;;;;;;;4943982;29;20031;-84
2021/11/20 02:30:58;;;;;;;9.13;5.78;;;;;;;;;;4943373;29;20076;-85
2021/11/20 02:33:45;;;;;;;8.82;5.97;;;;;;;;;;4937825;29;20063;-84
2021/11/20 02:36:16;;;;;;;9.85;6.82;;;;;;;;;;4927395;29;20028;-86
2021/11/20 02:38:44;;;;;;;10.75;7.20;;;;;;;;;;4923088;29;20039;-86
2021/11/20 02:41:12;;;;;;;10.15;7.18;;;;;;;;;;4929978;29;20040;-86
2021/11/20 02:43:39;;;;;;;11.63;8.38;;;;;;;;;;4933490;29;20070;-85
2021/11/20 02:46:07;;;;;;;13.27;8.05;;;;;;;;;;4923715;29;20027;-85
2021/11/20 02:48:33;;;;;;;12.35;8.25;;;;;;;;;;4923437;29;20397;-86
2021/11/20 02:51:08;;;;;;;12.80;8.38;;;;;;;;;;4920414;29;20028;-84
2021/11/20 02:53:36;;;;;;;12.77;8.77;;;;;;;;;;4908346;29;20486;-87
2021/11/20 02:56:03;;;;;;;13.32;9.23;;;;;;;;;;4903834;29;20039;-84
2021/11/20 02:58:29;;;;;;;13.23;8.43;;;;;;;;;;4904187;29;20115;-84
2021/11/20 03:01:00;;;;;;;11.95;8.10;;;;;;;;;;4938079;29;20039;-85
2021/11/20 03:03:27;;;;;;;13.57;8.48;;;;;;;;;;4935337;29;20106;-85
2021/11/20 03:05:53;;;;;;;12.68;8.38;;;;;;;;;;4903770;29;20028;-83
2021/11/20 03:08:19;;;;;;;11.02;7.72;;;;;;;;;;4919389;29;20115;-85
2021/11/20 03:10:45;;;;;;;9.75;6.72;;;;;;;;;;4924043;29;20482;-83
2021/11/20 03:13:12;;;;;;;10.32;7.10;;;;;;;;;;4908188;29;20515;-86
2021/11/20 03:15:38;;;;;;;9.20;6.18;;;;;;;;;;4920345;29;20028;-84
2021/11/20 03:18:04;;;;;;;8.40;5.40;;;;;;;;;;4939089;29;20035;-84
2021/11/20 03:20:31;;;;;;;8.45;4.95;;;;;;;;;;4920103;29;20036;-84
2021/11/20 03:23:00;;;;;;;8.35;5.15;;;;;;;;;;4905075;29;20092;-85
2021/11/20 03:25:26;;;;;;;7.82;5.15;;;;;;;;;;4921282;29;20088;-85
2021/11/20 03:27:52;;;;;;;9.50;5.97;;;;;;;;;;4910681;29;20074;-85
2021/11/20 03:30:19;;;;;;;8.27;5.30;;;;;;;;;;4936615;29;20028;-83
2021/11/20 03:32:45;;;;;;;8.55;5.57;;;;;;;;;;4918111;29;20048;-87
2021/11/20 03:35:12;;;;;;;9.90;5.68;;;;;;;;;;4902035;29;20024;-83
2021/11/20 03:37:38;;;;;;;9.27;5.93;;;;;;;;;;4917522;29;20031;-85
2021/11/20 03:40:06;;;;;;;9.50;6.55;;;;;;;;;;4909626;29;20043;-85
2021/11/20 03:42:32;;;;;;;10.07;7.05;;;;;;;;;;4919451;29;20510;-84
2021/11/20 03:44:58;;;;;;;11.57;6.50;;;;;;;;;;4911034;29;20035;-85
2021/11/20 03:47:24;;;;;;;9.70;6.13;;;;;;;;;;4900761;29;20561;-85
2021/11/20 03:49:50;;;;;;;9.23;5.68;;;;;;;;;;4917898;29;20056;-84
2021/11/20 03:52:17;;;;;;;9.07;5.80;;;;;;;;;;4917379;29;20025;-84
2021/11/20 03:54:44;;;;;;;9.50;6.00;;;;;;;;;;4924423;29;20033;-88
2021/11/20 03:57:10;;;;;;;10.10;7.10;;;;;;;;;;4900968;29;20028;-86
2021/11/20 03:59:36;;;;;;;8.50;5.78;;;;;;;;;;4901077;29;20593;-86
2021/11/20 04:02:03;;;;;;;9.10;6.22;;;;;;;;;;4900754;29;20515;-86
2021/11/20 04:04:29;;;;;;;9.10;5.65;;;;;;;;;;4908483;29;20068;-83
2021/11/20 04:06:55;;;;;;;9.55;6.05;;;;;;;;;;4920190;29;20123;-85
2021/11/20 04:09:22;;;;;;;9.73;6.50;;;;;;;;;;4935166;29;20035;-83
2021/11/20 04:11:49;;;;;;;9.30;5.50;;;;;;;;;;4900799;29;20032;-87
2021/11/20 04:14:16;;;;;;;8.10;5.07;;;;;;;;;;4902924;29;20024;-84
2021/11/20 04:16:42;;;;;;;8.80;5.60;;;;;;;;;;4936716;29;20548;-86
2021/11/20 04:19:09;;;;;;;7.97;4.93;;;;;;;;;;4911782;29;20115;-84
2021/11/20 04:21:35;;;;;;;7.57;4.63;;;;;;;;;;4901440;29;20090;-84
2021/11/20 04:24:01;;;;;;;6.75;4.60;;;;;;;;;;4925443;29;20035;-87
2021/11/20 04:26:28;;;;;;;7.88;4.50;;;;;;;;;;4899972;29;20497;-85
2021/11/20 04:28:54;;;;;;;8.00;4.70;;;;;;;;;;4906589;29;20032;-84
2021/11/20 04:31:21;;;;;;;8.68;5.00;;;;;;;;;;4935501;29;20048;-86
2021/11/20 04:33:48;;;;;;;8.40;5.10;;;;;;;;;;4910738;29;20048;-86
2021/11/20 04:36:15;;;;;;;8.60;5.25;;;;;;;;;;4900281;29;20076;-84
2021/11/20 04:38:41;;;;;;;9.35;5.53;;;;;;;;;;4918420;29;20035;-86
2021/11/20 04:41:08;;;;;;;10.98;6.65;;;;;;;;;;4918727;29;20493;-83
2021/11/20 04:43:34;;;;;;;9.88;5.72;;;;;;;;;;4919493;29;20032;-86
2021/11/20 04:46:01;;;;;;;10.88;7.18;;;;;;;;;;4923726;29;20060;-86
2021/11/20 04:48:27;;;;;;;12.07;7.03;;;;;;;;;;4921997;29;20057;-85
2021/11/20 04:50:55;;;;;;;12.13;7.32;;;;;;;;;;4921076;29;20044;-87
2021/11/20 04:53:21;;;;;;;11.52;7.03;;;;;;;;;;4904327;29;20059;-85
2021/11/20 04:55:48;;;;;;;11.40;8.07;;;;;;;;;;4915225;29;20107;-84
2021/11/20 04:58:14;;;;;;;12.40;7.65;;;;;;;;;;4939196;29;20042;-84
2021/11/20 05:00:42;;;;;;;12.52;7.85;;;;;;;;;;4933957;29;20064;-85
2021/11/20 05:03:08;;;;;;;12.80;8.50;;;;;;;;;;4920885;29;20569;-86
2021/11/20 05:05:35;;;;;;;13.60;8.45;;;;;;;;;;4921264;29;20114;-85
2021/11/20 05:08:01;;;;;;;13.25;8.63;;;;;;;;;;4903996;29;20028;-85
2021/11/20 05:10:29;;;;;;;15.30;8.80;;;;;;;;;;4904264;29;20024;-87
2021/11/20 05:12:56;;;;;;;14.88;8.27;;;;;;;;;;4904636;29;20142;-87
2021/11/20 05:15:23;;;;;;;12.30;8.15;;;;;;;;;;4911978;29;20020;-87
2021/11/20 05:17:49;;;;;;;12.95;8.93;;;;;;;;;;4917862;29;20027;-86
2021/11/20 05:20:15;;;;;;;13.52;8.50;;;;;;;;;;4934525;29;20086;-86
2021/11/20 05:22:42;;;;;;;15.20;8.98;;;;;;;;;;4933505;29;20032;-87
2021/11/20 05:25:08;;;;;;;16.02;8.98;;;;;;;;;;4933909;29;20127;-87
2021/11/20 05:27:35;;;;;;;12.38;8.70;;;;;;;;;;4940365;29;20027;-87
2021/11/20 05:32:31;;;;;;;12.93;8.32;;;;;;;;;;4926119;29;20562;-87
2021/11/20 05:34:57;;;;;;;13.43;8.63;;;;;;;;;;4930665;29;20151;-87
2021/11/20 05:37:24;;;;;;;13.52;9.13;;;;;;;;;;4940259;29;20047;-86
2021/11/20 05:39:50;;;;;;;13.27;8.95;;;;;;;;;;4924328;29;20027;-84
2021/11/20 05:42:17;;;;;;;12.85;7.95;;;;;;;;;;4924746;29;20598;-86
2021/11/20 05:44:43;;;;;;;11.45;8.35;;;;;;;;;;4917696;29;20111;-86
2021/11/20 05:47:09;;;;;;;13.40;8.68;;;;;;;;;;4941448;29;20030;-85
2021/11/20 05:49:37;;;;;;;13.07;8.75;;;;;;;;;;4933662;29;20115;-84
2021/11/20 05:52:04;;;;;;;12.13;7.60;;;;;;;;;;4910230;29;20015;-87
2021/11/20 05:54:32;;;;;;;12.38;8.32;;;;;;;;;;4921639;29;20047;-87
2021/11/20 05:56:58;;;;;;;11.52;7.13;;;;;;;;;;4922632;29;20064;-87
2021/11/20 05:59:25;;;;;;;11.88;8.35;;;;;;;;;;4920842;29;20434;-83
2021/11/20 06:01:51;;;;;;;11.13;7.65;;;;;;;;;;4922015;29;20063;-87
2021/11/20 06:04:17;;;;;;;11.13;7.53;;;;;;;;;;4922271;29;20114;-85
2021/11/20 06:06:43;;;;;;;11.23;7.97;;;;;;;;;;4939987;29;20031;-85
2021/11/20 06:09:11;;;;;;;12.05;9.18;;;;;;;;;;4908916;29;20026;-87
2021/11/20 06:11:38;;;;;;;10.35;7.45;;;;;;;;;;4906680;29;20028;-86
2021/11/20 06:14:05;;;;;;;9.65;6.88;;;;;;;;;;4915808;29;20024;-85
2021/11/20 06:16:31;;;;;;;11.68;7.20;;;;;;;;;;4926987;29;20024;-85
2021/11/20 06:18:58;;;;;;;10.18;6.93;;;;;;;;;;4921109;29;20398;-86
2021/11/20 06:21:24;;;;;;;11.38;7.28;;;;;;;;;;4907481;29;20069;-85
2021/11/20 06:23:50;;;;;;;10.57;6.55;;;;;;;;;;4922731;29;20079;-84
2021/11/20 06:26:17;;;;;;;10.40;6.90;;;;;;;;;;4912503;29;20186;-86
2021/11/20 06:28:44;;;;;;;9.70;6.15;;;;;;;;;;4902862;29;20032;-85
2021/11/20 06:31:11;;;;;;;9.35;6.38;;;;;;;;;;4921217;29;20436;-86
2021/11/20 06:33:37;;;;;;;10.63;6.68;;;;;;;;;;4926030;29;20023;-86
2021/11/20 06:36:04;;;;;;;12.20;8.00;;;;;;;;;;4920414;29;20474;-88
2021/11/20 06:38:30;;;;;;;9.95;6.80;;;;;;;;;;4928584;29;20074;-87
2021/11/20 06:41:00;;;;;;;10.02;6.90;;;;;;;;;;4912536;29;20032;-87
2021/11/20 06:43:27;;;;;;;11.75;8.18;;;;;;;;;;4904821;29;20035;-86
2021/11/20 06:45:54;;;;;;;10.88;7.60;;;;;;;;;;4922817;29;20035;-86
2021/11/20 06:48:22;;;;;;;10.23;6.72;;;;;;;;;;4909579;29;20024;-87
2021/11/20 06:50:49;;;;;;;10.00;6.78;;;;;;;;;;4923513;29;20028;-86
2021/11/20 06:53:16;;;;;;;10.18;6.53;;;;;;;;;;4929135;29;20028;-87
2021/11/20 06:55:43;;;;;;;11.45;6.72;;;;;;;;;;4927231;29;20513;-87
2021/11/20 07:00:44;;;;;;;11.25;6.80;;;;;;;;;;4932854;29;20048;-86
2021/11/20 07:03:18;;;;;;;8.90;5.80;;;;;;;;;;4922481;29;20115;-85
2021/11/20 07:05:46;;;;;;;8.55;6.20;;;;;;;;;;4920693;29;20187;-85
2021/11/20 07:08:13;;;;;;;9.95;6.18;;;;;;;;;;4928151;29;20066;-85
2021/11/20 07:10:39;;;;;;;9.32;5.88;;;;;;;;;;4941348;29;20047;-86
2021/11/20 07:13:06;;;;;;;7.63;5.82;;;;;;;;;;4920488;29;20055;-86
2021/11/20 07:15:32;;;;;;;9.15;6.30;;;;;;;;;;4912563;29;20487;-86
2021/11/20 07:17:59;;;;;;;8.20;5.68;;;;;;;;;;4902558;29;20036;-85
2021/11/20 07:20:28;;;;;;;7.28;5.07;;;;;;;;;;4918872;29;20043;-85
2021/11/20 07:22:57;;;;;;;8.20;5.50;;;;;;;;;;4917944;29;20071;-85
2021/11/20 07:25:25;;;;;;;9.70;6.38;;;;;;;;;;4908307;29;20028;-88
2021/11/20 07:27:52;;;;;;;8.38;5.75;;;;;;;;;;4915513;29;20043;-86
2021/11/20 07:30:18;;;;;;;7.95;5.55;;;;;;;;;;4918817;29;20031;-87
2021/11/20 07:32:45;;;;;;;9.10;5.97;;;;;;;;;;4913291;29;20093;-86
2021/11/20 07:35:12;;;;;;;8.20;5.47;;;;;;;;;;4917114;29;20066;-86
2021/11/20 07:37:38;;;;;;;7.63;5.20;;;;;;;;;;4939524;29;20035;-87
2021/11/20 07:40:05;;;;;;;8.60;4.93;;;;;;;;;;4910086;29;20024;-86
2021/11/20 07:42:31;;;;;;;8.88;5.35;;;;;;;;;;4921292;29;20541;-86
2021/11/20 07:45:02;;;;;;;6.93;4.50;;;;;;;;;;4922356;29;20024;-87
2021/11/20 07:47:29;;;;;;;8.07;4.93;;;;;;;;;;4921623;29;20486;-85
2021/11/20 07:49:56;;;;;;;8.00;5.22;;;;;;;;;;4920082;29;20035;-87
2021/11/20 07:52:22;;;;;;;7.93;5.35;;;;;;;;;;4920305;29;20028;-88
2021/11/20 07:54:48;;;;;;;6.22;4.35;;;;;;;;;;4903112;29;20091;-86
2021/11/20 07:57:15;;;;;;;7.68;4.90;;;;;;;;;;4902590;29;20454;-87
2021/11/20 07:59:41;;;;;;;8.68;4.80;;;;;;;;;;4911680;29;20027;-86
2021/11/20 08:02:08;;;;;;;7.32;4.68;;;;;;;;;;4921158;29;20070;-85
2021/11/20 08:04:37;;;;;;;7.60;5.00;;;;;;;;;;4921618;29;20027;-86
2021/11/20 08:07:04;;;;;;;7.70;4.90;;;;;;;;;;4919223;29;20477;-85
2021/11/20 08:09:30;;;;;;;8.85;5.53;;;;;;;;;;4921968;29;20028;-86
2021/11/20 08:11:57;;;;;;;6.60;4.57;;;;;;;;;;4921365;29;20557;-86
2021/11/20 08:14:22;;;;;;;7.22;4.88;;;;;;;;;;4922479;29;20019;-87
2021/11/20 08:16:48;;;;;;;6.68;4.70;;;;;;;;;;4921542;29;20079;-87
2021/11/20 08:19:15;;;;;;;7.97;5.07;;;;;;;;;;4919160;29;20083;-86
2021/11/20 08:21:41;;;;;;;8.55;5.32;;;;;;;;;;4904455;29;20398;-86
2021/11/20 08:24:08;;;;;;;7.35;4.35;;;;;;;;;;4939129;29;20078;-88
2021/11/20 08:26:36;;;;;;;8.23;4.90;;;;;;;;;;4923466;29;20024;-85
2021/11/20 08:29:04;;;;;;;7.60;4.32;;;;;;;;;;4908013;29;20032;-85
2021/11/20 08:31:31;;;;;;;8.18;5.35;;;;;;;;;;4910254;29;20079;-88
2021/11/20 08:33:57;;;;;;;7.53;4.68;;;;;;;;;;4916374;29;20158;-88
2021/11/20 08:36:23;;;;;;;8.55;4.97;;;;;;;;;;4919040;29;20406;-86
2021/11/20 08:38:49;;;;;;;8.48;4.55;;;;;;;;;;4920552;29;20028;-87
2021/11/20 08:41:15;;;;;;;9.00;5.18;;;;;;;;;;4919529;29;20131;-87
2021/11/20 08:43:41;;;;;;;8.15;5.07;;;;;;;;;;4906364;29;20029;-87
2021/11/20 08:46:08;;;;;;;7.97;4.68;;;;;;;;;;4900689;29;20072;-86
2021/11/20 08:48:35;;;;;;;8.30;4.80;;;;;;;;;;4901689;29;20100;-87
2021/11/20 08:51:12;;;;;;;7.35;4.68;;;;;;;;;;4904008;29;20029;-87
2021/11/20 08:53:38;;;;;;;7.50;5.03;;;;;;;;;;4899195;29;20029;-86
2021/11/20 08:56:05;;;;;;;7.97;5.40;;;;;;;;;;4910412;29;20024;-86
2021/11/20 08:58:32;;;;;;;8.10;4.47;;;;;;;;;;4939155;29;20060;-87
2021/11/20 09:01:06;;;;;;;6.20;4.05;;;;;;;;;;4931878;29;20029;-87
2021/11/20 09:03:32;;;;;;;9.25;4.88;;;;;;;;;;4900123;29;20096;-86
2021/11/20 09:06:01;;;;;;;8.82;4.72;;;;;;;;;;4899699;29;20025;-87
2021/11/20 09:08:28;;;;;;;8.18;4.65;;;;;;;;;;4917931;29;20028;-85
2021/11/20 09:11:20;;;;;;;9.13;5.47;;;;;;;;;;4918947;29;20028;-85
2021/11/20 09:13:49;;;;;;;9.13;4.85;;;;;;;;;;4925406;29;20035;-86
2021/11/20 09:16:18;;;;;;;7.97;5.13;;;;;;;;;;4920640;29;20024;-85
2021/11/20 09:18:44;;;;;;;9.00;5.72;;;;;;;;;;4911779;29;20029;-88
2021/11/20 09:21:11;;;;;;;7.57;4.80;;;;;;;;;;4898748;29;20518;-86
2021/11/20 09:23:37;;;;;;;7.65;4.75;;;;;;;;;;4897261;29;20044;-87
2021/11/20 09:26:04;;;;;;;8.18;4.45;;;;;;;;;;4914060;29;20037;-86
2021/11/20 09:28:30;;;;;;;7.82;4.40;;;;;;;;;;4911953;29;20048;-86
2021/11/20 09:30:59;;;;;;;7.60;4.93;;;;;;;;;;4912042;29;20490;-87
2021/11/20 09:33:26;;;;;;;8.15;4.88;;;;;;;;;;4914865;29;20048;-86
2021/11/20 09:35:52;;;;;;;9.18;5.22;;;;;;;;;;4907856;29;20021;-86
2021/11/20 09:38:22;;;;;;;8.27;4.93;;;;;;;;;;4907228;29;20482;-86
2021/11/20 09:40:51;;;;;;;7.63;4.28;;;;;;;;;;4911271;29;20047;-88
2021/11/20 09:43:29;;;;;;;8.07;5.03;;;;;;;;;;4920047;29;20025;-86
2021/11/20 09:46:11;;;;;;;8.52;4.50;;;;;;;;;;4902500;29;20036;-86
2021/11/20 09:48:42;;;;;;;7.60;5.18;;;;;;;;;;4902984;29;20073;-87
2021/11/20 09:51:23;;;;;;;9.20;5.45;;;;;;;;;;4905863;29;20021;-87
2021/11/20 09:53:50;;;;;;;9.70;5.90;;;;;;;;;;4902763;29;20447;-86
2021/11/20 09:56:22;;;;;;;10.10;5.70;;;;;;;;;;4906275;29;20040;-86
2021/11/20 09:58:51;;;;;;;8.30;5.32;;;;;;;;;;4909084;29;20039;-86
2021/11/20 10:01:28;;;;;;;8.07;5.35;;;;;;;;;;4917673;29;20031;-85
2021/11/20 10:04:00;;;;;;;8.23;4.68;;;;;;;;;;4913904;29;20034;-88
2021/11/20 10:06:29;;;;;;;8.82;5.13;;;;;;;;;;4903589;29;20036;-87
2021/11/20 10:09:14;;;;;;;7.95;4.88;;;;;;;;;;4911259;29;20432;-85
2021/11/20 10:11:56;;;;;;;8.65;5.28;;;;;;;;;;4916888;29;20058;-88
2021/11/20 10:14:29;;;;;;;8.48;4.93;;;;;;;;;;4899757;29;20032;-87
2021/11/20 10:16:57;;;;;;;8.07;4.47;;;;;;;;;;4916738;29;20119;-85
2021/11/20 10:19:30;;;;;;;8.52;4.78;;;;;;;;;;4920216;29;20062;-87
2021/11/20 10:22:00;;;;;;;10.13;5.95;;;;;;;;;;4908923;29;20032;-86
2021/11/20 10:24:45;;;;;;;8.82;5.63;;;;;;;;;;4911698;29;20394;-86
2021/11/20 10:27:16;;;;;;;7.22;4.47;;;;;;;;;;4900308;29;20935;-87
2021/11/20 10:29:43;;;;;;;8.18;5.00;;;;;;;;;;4916794;29;20024;-86
2021/11/20 10:32:17;;;;;;;10.40;4.45;;;;;;;;;;4906386;29;20076;-86
2021/11/20 10:34:49;;;;;;;8.25;4.25;;;;;;;;;;4911545;29;20079;-85
2021/11/20 10:37:27;;;;;;;7.55;4.50;;;;;;;;;;4912732;29;20067;-87
2021/11/20 10:39:58;;;;;;;7.28;4.80;;;;;;;;;;4901227;29;20032;-85
2021/11/20 10:42:41;;;;;;;7.55;4.53;;;;;;;;;;4897626;29;20043;-85
2021/11/20 10:45:22;;;;;;;7.15;5.00;;;;;;;;;;4910000;29;20029;-86
2021/11/20 10:47:57;;;;;;;8.23;4.82;;;;;;;;;;4908861;29;20040;-86
2021/11/20 10:50:32;;;;;;;9.27;5.60;;;;;;;;;;4902162;29;20187;-87
2021/11/20 10:53:05;;;;;;;8.55;4.78;;;;;;;;;;4909346;29;20031;-87
2021/11/20 10:55:34;;;;;;;7.93;4.90;;;;;;;;;;4906521;29;20487;-88
2021/11/20 10:58:19;;;;;;;8.40;5.22;;;;;;;;;;4918021;29;20047;-87
2021/11/20 11:01:04;;;;;;;9.27;5.15;;;;;;;;;;4910545;29;20056;-86
2021/11/20 11:03:38;;;;;;;9.50;5.18;;;;;;;;;;4910920;29;20449;-87
2021/11/20 11:06:25;;;;;;;8.32;4.97;;;;;;;;;;4899267;29;20030;-87
2021/11/20 11:08:56;;;;;;;9.35;5.60;;;;;;;;;;4885246;29;20518;-86
2021/11/20 11:11:39;;;;;;;10.30;6.05;;;;;;;;;;4908577;29;20518;-86
2021/11/20 11:14:08;;;;;;;11.38;6.30;;;;;;;;;;4899873;29;20119;-87
2021/11/20 11:16:42;;;;;;;9.40;5.38;;;;;;;;;;4896333;29;20039;-88
2021/11/20 11:19:27;;;;;;;9.63;6.03;;;;;;;;;;4902153;29;20183;-89
2021/11/20 11:21:56;;;;;;;8.60;5.97;;;;;;;;;;4922637;29;20027;-87
2021/11/20 11:24:26;;;;;;;10.02;6.40;;;;;;;;;;4923588;29;20486;-88
2021/11/20 11:27:05;;;;;;;9.30;5.40;;;;;;;;;;4912902;29;20478;-86
2021/11/20 11:29:34;;;;;;;9.48;5.75;;;;;;;;;;4909411;29;20115;-88
2021/11/20 11:32:00;;;;;;;11.02;6.68;;;;;;;;;;4920266;29;20066;-87
2021/11/20 11:34:28;;;;;;;9.52;5.90;;;;;;;;;;4913592;29;20027;-88
2021/11/20 11:37:03;;;;;;;11.23;6.40;;;;;;;;;;4920915;29;20031;-89
2021/11/20 11:39:48;;;;;;;11.70;6.47;;;;;;;;;;4920054;29;20083;-87
2021/11/20 11:42:30;;;;;;;9.73;6.00;;;;;;;;;;4916494;29;20035;-88
2021/11/20 11:45:07;;;;;;;9.43;6.10;;;;;;;;;;4916659;29;20035;-88
2021/11/20 11:47:48;;;;;;;8.07;5.35;;;;;;;;;;4928327;29;20118;-89
2021/11/20 11:50:30;;;;;;;9.63;5.85;;;;;;;;;;4937271;29;20474;-87
2021/11/20 11:53:19;;;;;;;9.93;5.82;;;;;;;;;;4922675;29;20036;-86
2021/11/20 11:55:48;;;;;;;10.02;6.43;;;;;;;;;;4918878;29;20027;-86
2021/11/20 11:58:32;;;;;;;9.20;6.15;;;;;;;;;;4904175;29;20036;-88
2021/11/20 12:01:07;;;;;;;8.60;5.55;;;;;;;;;;4907873;29;20115;-86
2021/11/20 12:03:37;;;;;;;9.00;5.95;;;;;;;;;;4900318;29;20395;-85
2021/11/20 12:06:09;;;;;;;8.57;5.60;;;;;;;;;;4900386;29;20063;-87
2021/11/20 12:08:46;;;;;;;9.73;6.40;;;;;;;;;;4901158;29;20044;-86
2021/11/20 12:11:18;;;;;;;8.65;5.30;;;;;;;;;;4913835;29;20035;-86
2021/11/20 12:14:03;;;;;;;9.20;5.32;;;;;;;;;;4915658;29;20032;-85
2021/11/20 12:16:35;;;;;;;10.05;5.68;;;;;;;;;;4918257;29;20423;-86
2021/11/20 12:19:01;;;;;;;9.88;6.18;;;;;;;;;;4907698;29;20043;-88
2021/11/20 12:21:38;;;;;;;10.10;5.72;;;;;;;;;;4911368;29;20036;-87
2021/11/20 12:24:13;;;;;;;8.20;4.90;;;;;;;;;;4915146;29;20034;-88
2021/11/20 12:26:42;;;;;;;7.68;4.95;;;;;;;;;;4913896;29;20038;-88
2021/11/20 12:29:14;;;;;;;7.75;5.00;;;;;;;;;;4916971;29;20131;-88
2021/11/20 12:31:46;;;;;;;9.43;5.38;;;;;;;;;;4902203;29;20044;-87
2021/11/20 12:34:31;;;;;;;8.57;5.13;;;;;;;;;;4912253;29;20421;-87
2021/11/20 12:37:06;;;;;;;7.85;5.32;;;;;;;;;;4898808;29;20025;-87
2021/11/20 12:39:38;;;;;;;9.23;5.63;;;;;;;;;;4905573;29;20020;-87
2021/11/20 12:42:30;;;;;;;8.88;5.32;;;;;;;;;;4910590;29;20031;-88
2021/11/20 12:45:05;;;;;;;10.25;5.95;;;;;;;;;;4918301;29;20024;-87
2021/11/20 12:47:51;;;;;;;8.77;5.20;;;;;;;;;;4907416;29;20021;-85
2021/11/20 12:50:36;;;;;;;11.23;6.10;;;;;;;;;;4914355;29;20020;-87
2021/11/20 12:53:03;;;;;;;9.38;5.70;;;;;;;;;;4909962;29;20036;-85
2021/11/20 12:55:36;;;;;;;9.18;5.30;;;;;;;;;;4909000;29;20120;-85
2021/11/20 12:58:16;;;;;;;9.40;5.80;;;;;;;;;;4906957;29;20024;-85
2021/11/20 13:00:50;;;;;;;11.85;6.47;;;;;;;;;;4906296;29;20064;-86
2021/11/20 13:03:16;;;;;;;8.57;5.13;;;;;;;;;;4910342;29;20036;-86
2021/11/20 13:05:55;;;;;;;10.13;6.03;;;;;;;;;;4912118;29;20557;-85
2021/11/20 13:08:33;;;;;;;9.05;5.28;;;;;;;;;;4919169;29;20028;-85
2021/11/20 13:11:17;;;;;;;10.02;5.95;;;;;;;;;;4917396;29;20079;-85
2021/11/20 13:14:04;;;;;;;9.90;6.13;;;;;;;;;;4916207;29;20046;-84
2021/11/20 13:16:34;;;;;;;9.82;5.95;;;;;;;;;;4917407;29;20036;-85
2021/11/20 13:19:03;;;;;;;9.35;5.90;;;;;;;;;;4918637;29;20478;-85
2021/11/20 13:21:34;;;;;;;10.75;7.20;;;;;;;;;;4913554;29;20028;-85
2021/11/20 13:24:30;;;;;;;10.30;6.30;;;;;;;;;;4911542;29;20059;-86
2021/11/20 13:27:04;;;;;;;10.90;6.45;;;;;;;;;;4896142;29;20075;-85
2021/11/20 13:29:30;;;;;;;10.30;6.30;;;;;;;;;;4920554;29;20071;-85
2021/11/20 13:31:56;;;;;;;10.77;6.05;;;;;;;;;;4906786;29;20051;-85
2021/11/20 13:34:22;;;;;;;14.48;7.38;;;;;;;;;;4901316;29;20052;-85
2021/11/20 13:36:48;;;;;;;12.10;6.93;;;;;;;;;;4908874;29;20142;-85
2021/11/20 13:39:14;;;;;;;10.18;6.15;;;;;;;;;;4915613;29;20052;-85
2021/11/20 13:41:40;;;;;;;10.65;6.78;;;;;;;;;;4908594;29;20021;-86
2021/11/20 13:44:07;;;;;;;11.20;6.05;;;;;;;;;;4919429;29;20021;-84
2021/11/20 13:46:33;;;;;;;10.02;6.30;;;;;;;;;;4906385;29;20048;-85
2021/11/20 13:49:04;;;;;;;10.77;6.63;;;;;;;;;;4913201;29;20418;-85
2021/11/20 13:51:31;;;;;;;13.00;6.85;;;;;;;;;;4915341;29;20034;-85
2021/11/20 13:53:58;;;;;;;9.77;6.28;;;;;;;;;;4918309;29;20065;-86
2021/11/20 13:56:26;;;;;;;11.38;6.57;;;;;;;;;;4908371;29;20035;-85
2021/11/20 13:58:59;;;;;;;10.60;6.78;;;;;;;;;;4935014;29;20028;-85
2021/11/20 14:01:26;;;;;;;11.18;6.63;;;;;;;;;;4928316;29;20119;-84
2021/11/20 14:03:57;;;;;;;10.75;6.78;;;;;;;;;;4906846;29;20033;-84
2021/11/20 14:06:23;;;;;;;11.18;6.80;;;;;;;;;;4916609;29;20505;-85
2021/11/20 14:08:50;;;;;;;11.20;6.68;;;;;;;;;;4916509;29;20036;-86
2021/11/20 14:11:19;;;;;;;11.20;7.00;;;;;;;;;;4921733;29;20103;-85
2021/11/20 14:13:49;;;;;;;11.02;6.55;;;;;;;;;;4911202;29;20123;-85
2021/11/20 14:16:15;;;;;;;11.38;6.63;;;;;;;;;;4905501;29;20031;-86
2021/11/20 14:18:48;;;;;;;11.95;6.65;;;;;;;;;;4907478;29;20029;-87
2021/11/20 14:21:17;;;;;;;10.98;6.60;;;;;;;;;;4912495;29;20048;-85
2021/11/20 14:23:53;;;;;;;10.45;6.38;;;;;;;;;;4914922;29;20044;-89
2021/11/20 14:26:19;;;;;;;10.65;6.78;;;;;;;;;;4903062;29;20039;-87
2021/11/20 14:28:46;;;;;;;11.88;6.65;;;;;;;;;;4902998;29;20090;-86
2021/11/20 14:31:13;;;;;;;10.25;6.35;;;;;;;;;;4917774;29;20095;-86
2021/11/20 14:33:58;;;;;;;10.18;6.25;;;;;;;;;;4916523;29;20059;-85
2021/11/20 14:36:32;;;;;;;11.73;7.03;;;;;;;;;;4916705;29;20056;-85
2021/11/20 14:38:59;;;;;;;12.10;7.10;;;;;;;;;;4911199;29;20082;-85
2021/11/20 14:41:42;;;;;;;10.77;6.47;;;;;;;;;;4907730;29;20083;-86
2021/11/20 14:44:09;;;;;;;10.98;7.38;;;;;;;;;;4905397;29;20032;-85
2021/11/20 14:46:35;;;;;;;11.00;6.75;;;;;;;;;;4910939;29;20418;-85
2021/11/20 14:49:05;;;;;;;13.25;8.07;;;;;;;;;;4901376;29;20043;-86
2021/11/20 14:51:35;;;;;;;10.50;7.00;;;;;;;;;;4901445;29;20118;-85
2021/11/20 14:54:08;;;;;;;14.38;7.95;;;;;;;;;;4914499;29;20047;-85
2021/11/20 14:56:34;;;;;;;13.07;7.97;;;;;;;;;;4942654;29;20038;-85
2021/11/20 14:59:00;;;;;;;13.73;8.25;;;;;;;;;;4928062;29;20032;-85
2021/11/20 15:01:27;;;;;;;13.10;7.82;;;;;;;;;;4915272;29;20035;-85